Time;durP1;ratioP1;P1;durP2;ratioP2;P2;SDS_P1;SDS_P2;PMS_P1;PMS_P2;Temp;Humidity;BMP_temperature;BMP_pressure;BME280_temperature;BME280_humidity;BME280_pressure;Samples;Min_cycle;Max_cycle;Signal;HPM_P1;HPM_P2
2022/10/02 00:01:42;;;;;;;0.60;0.60;;;;;;;;;;5085632;28;20043;-43
2022/10/02 00:04:11;;;;;;;0.65;0.60;;;;;;;;;;5085130;28;20120;-42
2022/10/02 00:06:42;;;;;;;0.95;0.70;;;;;;;;;;5085855;28;20032;-44
2022/10/02 00:09:13;;;;;;;0.90;0.73;;;;;;;;;;5083279;28;20039;-43
2022/10/02 00:11:44;;;;;;;0.88;0.70;;;;;;;;;;5079330;28;20036;-43
2022/10/02 00:14:15;;;;;;;0.70;0.70;;;;;;;;;;5087649;28;20043;-42
2022/10/02 00:16:43;;;;;;;0.60;0.50;;;;;;;;;;5088060;28;20438;-43
2022/10/02 00:19:09;;;;;;;1.05;0.70;;;;;;;;;;5087137;28;20546;-43
2022/10/02 00:21:35;;;;;;;1.05;0.80;;;;;;;;;;5083745;28;20055;-43
2022/10/02 00:24:02;;;;;;;1.02;0.93;;;;;;;;;;5085081;28;21101;-43
2022/10/02 00:26:40;;;;;;;1.08;0.90;;;;;;;;;;5087259;28;20028;-43
2022/10/02 00:29:06;;;;;;;0.80;0.80;;;;;;;;;;5087234;28;20724;-43
2022/10/02 00:31:35;;;;;;;1.60;0.98;;;;;;;;;;5085690;28;20110;-42
2022/10/02 00:34:04;;;;;;;1.23;1.05;;;;;;;;;;5085942;28;20384;-42
2022/10/02 00:36:36;;;;;;;1.10;1.00;;;;;;;;;;5086757;28;20122;-43
2022/10/02 00:39:16;;;;;;;0.88;0.85;;;;;;;;;;5087116;28;20020;-42
2022/10/02 00:41:51;;;;;;;1.70;1.20;;;;;;;;;;5086772;28;20490;-42
2022/10/02 00:44:20;;;;;;;2.13;1.42;;;;;;;;;;5087026;28;20028;-43
2022/10/02 00:46:51;;;;;;;2.45;1.90;;;;;;;;;;5087088;28;20043;-42
2022/10/02 00:49:17;;;;;;;3.50;2.50;;;;;;;;;;5086690;28;20612;-43
2022/10/02 00:51:58;;;;;;;3.10;2.50;;;;;;;;;;5086742;28;20094;-43
2022/10/02 00:54:24;;;;;;;3.20;2.15;;;;;;;;;;5066690;28;20644;-43
2022/10/02 00:56:55;;;;;;;2.97;2.28;;;;;;;;;;5066471;28;20079;-42
2022/10/02 00:59:28;;;;;;;2.13;1.90;;;;;;;;;;5066511;28;20028;-43
2022/10/02 01:01:54;;;;;;;1.90;1.70;;;;;;;;;;5070264;28;20028;-44
2022/10/02 01:04:23;;;;;;;3.42;2.50;;;;;;;;;;5084326;28;20036;-43
2022/10/02 01:06:49;;;;;;;3.72;2.88;;;;;;;;;;5086171;28;20043;-42
2022/10/02 01:09:15;;;;;;;3.38;2.60;;;;;;;;;;5087116;28;20436;-42
2022/10/02 01:11:43;;;;;;;3.28;2.97;;;;;;;;;;5084289;28;20028;-43
2022/10/02 01:14:09;;;;;;;3.78;2.85;;;;;;;;;;5073256;28;20123;-43
2022/10/02 01:16:36;;;;;;;2.97;2.22;;;;;;;;;;5085844;28;20042;-42
2022/10/02 01:19:02;;;;;;;2.15;1.88;;;;;;;;;;5085775;28;20023;-42
2022/10/02 01:21:37;;;;;;;2.72;2.00;;;;;;;;;;5081135;28;20020;-43
2022/10/02 01:24:09;;;;;;;3.70;2.55;;;;;;;;;;5066389;28;20031;-42
2022/10/02 01:26:35;;;;;;;2.97;2.30;;;;;;;;;;5069613;28;20055;-43
2022/10/02 01:29:01;;;;;;;3.67;2.60;;;;;;;;;;5066300;28;20028;-43
2022/10/02 01:31:28;;;;;;;5.88;2.88;;;;;;;;;;5069568;28;20065;-44
2022/10/02 01:33:54;;;;;;;3.67;2.50;;;;;;;;;;5086109;28;20055;-42
2022/10/02 01:36:21;;;;;;;3.53;2.15;;;;;;;;;;5086408;28;20396;-43
2022/10/02 01:38:47;;;;;;;3.17;1.90;;;;;;;;;;5085996;28;20475;-43
2022/10/02 01:41:13;;;;;;;1.98;1.40;;;;;;;;;;5085246;28;20471;-43
2022/10/02 01:43:42;;;;;;;2.80;1.58;;;;;;;;;;5085969;28;20096;-42
2022/10/02 01:46:27;;;;;;;1.60;1.15;;;;;;;;;;5086166;28;20039;-43
2022/10/02 01:49:05;;;;;;;1.17;1.05;;;;;;;;;;5086034;28;20016;-44
2022/10/02 01:51:47;;;;;;;1.20;1.10;;;;;;;;;;5084217;28;20506;-42
2022/10/02 01:54:13;;;;;;;1.05;0.95;;;;;;;;;;5066717;28;20020;-43
2022/10/02 01:56:45;;;;;;;1.50;1.10;;;;;;;;;;5065739;28;20029;-43
2022/10/02 01:59:34;;;;;;;1.42;1.05;;;;;;;;;;5066626;28;20126;-43
2022/10/02 02:02:00;;;;;;;0.93;0.80;;;;;;;;;;5045908;28;20110;-43
2022/10/02 02:04:29;;;;;;;0.90;0.88;;;;;;;;;;5065972;28;20115;-43
2022/10/02 02:06:58;;;;;;;1.17;0.90;;;;;;;;;;5077103;28;20043;-43
2022/10/02 02:09:33;;;;;;;0.77;0.70;;;;;;;;;;5067355;28;20483;-42
2022/10/02 02:12:19;;;;;;;0.80;0.80;;;;;;;;;;5069206;28;20183;-43
2022/10/02 02:15:06;;;;;;;1.05;0.90;;;;;;;;;;5064924;28;20131;-42
2022/10/02 02:17:43;;;;;;;1.23;0.95;;;;;;;;;;5065275;28;20029;-42
2022/10/02 02:20:13;;;;;;;1.10;0.98;;;;;;;;;;5065747;28;20111;-42
2022/10/02 02:22:43;;;;;;;1.17;0.80;;;;;;;;;;5067008;28;20136;-43
2022/10/02 02:25:11;;;;;;;0.90;0.90;;;;;;;;;;5069431;28;20063;-43
2022/10/02 02:27:40;;;;;;;0.82;0.80;;;;;;;;;;5069325;28;20036;-43
2022/10/02 02:30:08;;;;;;;0.90;0.90;;;;;;;;;;5071209;28;20032;-42
2022/10/02 02:32:37;;;;;;;4.32;1.00;;;;;;;;;;5088432;28;20548;-42
2022/10/02 02:35:09;;;;;;;0.90;0.90;;;;;;;;;;5089589;28;20042;-42
2022/10/02 02:37:38;;;;;;;0.77;0.70;;;;;;;;;;5089451;28;20031;-43
2022/10/02 02:40:11;;;;;;;0.75;0.70;;;;;;;;;;5089426;28;20020;-43
2022/10/02 02:42:40;;;;;;;0.82;0.70;;;;;;;;;;5087860;28;20039;-42
2022/10/02 02:45:07;;;;;;;0.85;0.77;;;;;;;;;;5088479;28;20415;-42
2022/10/02 02:47:45;;;;;;;1.33;0.85;;;;;;;;;;5088842;28;20032;-42
2022/10/02 02:50:15;;;;;;;1.80;1.02;;;;;;;;;;5089839;28;20024;-43
2022/10/02 02:52:45;;;;;;;1.27;0.90;;;;;;;;;;5088809;28;20036;-43
2022/10/02 02:55:23;;;;;;;1.48;0.90;;;;;;;;;;5089142;28;20035;-43
2022/10/02 02:57:52;;;;;;;1.23;0.90;;;;;;;;;;5088931;28;20035;-42
2022/10/02 03:00:19;;;;;;;1.45;1.10;;;;;;;;;;5088964;28;20491;-42
2022/10/02 03:02:45;;;;;;;1.80;1.20;;;;;;;;;;5078227;28;20074;-43
2022/10/02 03:05:13;;;;;;;1.17;0.90;;;;;;;;;;5068895;28;20028;-42
2022/10/02 03:07:39;;;;;;;1.40;1.00;;;;;;;;;;5068573;28;20107;-42
2022/10/02 03:10:09;;;;;;;1.50;1.08;;;;;;;;;;5085560;28;20035;-42
2022/10/02 03:12:53;;;;;;;1.48;0.90;;;;;;;;;;5086813;28;20040;-42
2022/10/02 03:15:27;;;;;;;1.00;0.73;;;;;;;;;;5088632;28;20028;-42
2022/10/02 03:18:12;;;;;;;1.13;0.77;;;;;;;;;;5088608;28;20062;-42
2022/10/02 03:20:38;;;;;;;;;;;;;;;;;;5089121;28;20095;-42
2022/10/02 03:23:07;;;;;;;5.40;2.80;;;;;;;;;;5087601;28;20465;-42
2022/10/02 03:25:46;;;;;;;5.35;2.90;;;;;;;;;;5087731;28;20585;-43
2022/10/02 03:28:23;;;;;;;4.53;2.50;;;;;;;;;;5088836;28;20142;-43
2022/10/02 03:30:50;;;;;;;3.90;2.25;;;;;;;;;;5088113;28;20499;-43
2022/10/02 03:33:17;;;;;;;4.88;2.13;;;;;;;;;;5086276;28;20036;-43
2022/10/02 03:35:43;;;;;;;3.58;1.98;;;;;;;;;;5081726;28;20450;-42
2022/10/02 03:38:11;;;;;;;2.60;1.52;;;;;;;;;;5083511;28;20028;-43
2022/10/02 03:40:37;;;;;;;2.97;1.50;;;;;;;;;;5088202;28;20028;-42
2022/10/02 03:43:03;;;;;;;1.63;1.10;;;;;;;;;;5088197;28;20020;-43
2022/10/02 03:45:30;;;;;;;2.25;1.15;;;;;;;;;;5087133;28;20028;-43
2022/10/02 03:47:56;;;;;;;1.60;1.10;;;;;;;;;;5086976;28;20020;-42
2022/10/02 03:50:22;;;;;;;1.58;1.15;;;;;;;;;;5088102;28;20384;-42
2022/10/02 03:52:52;;;;;;;1.27;0.90;;;;;;;;;;5087813;28;20061;-42
2022/10/02 03:55:18;;;;;;;1.38;0.88;;;;;;;;;;5086356;28;20032;-42
2022/10/02 03:57:45;;;;;;;1.27;1.10;;;;;;;;;;5088069;28;20012;-42
2022/10/02 04:00:13;;;;;;;1.15;0.75;;;;;;;;;;5088136;28;20039;-43
2022/10/02 04:03:02;;;;;;;0.75;0.75;;;;;;;;;;5087492;28;20088;-42
2022/10/02 04:05:32;;;;;;;1.73;1.00;;;;;;;;;;5078075;28;20090;-42
2022/10/02 04:08:02;;;;;;;0.82;0.70;;;;;;;;;;5067634;28;20048;-42
2022/10/02 04:10:40;;;;;;;1.17;0.80;;;;;;;;;;5067521;28;20026;-43
2022/10/02 04:13:11;;;;;;;0.93;0.82;;;;;;;;;;5067144;28;20033;-42
2022/10/02 04:15:40;;;;;;;0.85;0.70;;;;;;;;;;5071301;28;20031;-42
2022/10/02 04:18:09;;;;;;;0.80;0.70;;;;;;;;;;5087504;28;20028;-42
2022/10/02 04:20:40;;;;;;;0.70;0.70;;;;;;;;;;5087598;28;20089;-44
2022/10/02 04:23:12;;;;;;;1.05;0.80;;;;;;;;;;5087535;28;20513;-42
2022/10/02 04:25:42;;;;;;;0.88;0.60;;;;;;;;;;5086172;28;20023;-43
2022/10/02 04:28:16;;;;;;;0.90;0.77;;;;;;;;;;5086675;28;20024;-43
2022/10/02 04:30:42;;;;;;;0.60;0.50;;;;;;;;;;5087687;28;20028;-42
2022/10/02 04:33:17;;;;;;;0.50;0.50;;;;;;;;;;5087201;28;20017;-42
2022/10/02 04:36:02;;;;;;;0.73;0.60;;;;;;;;;;5086934;28;20146;-42
2022/10/02 04:38:33;;;;;;;0.95;0.80;;;;;;;;;;5087058;28;20056;-42
2022/10/02 04:41:18;;;;;;;0.50;0.50;;;;;;;;;;5087181;28;20034;-42
2022/10/02 04:43:44;;;;;;;;;;;;;;;;;;5087945;28;20024;-44
2022/10/02 04:46:19;;;;;;;0.73;0.52;;;;;;;;;;5085542;28;19912;-42
2022/10/02 04:48:57;;;;;;;0.85;0.70;;;;;;;;;;5086853;28;20035;-43
2022/10/02 04:51:26;;;;;;;0.73;0.73;;;;;;;;;;5087075;28;20028;-43
2022/10/02 04:53:55;;;;;;;0.90;0.80;;;;;;;;;;5085935;28;20115;-42
2022/10/02 04:56:36;;;;;;;0.63;0.60;;;;;;;;;;5085129;28;20096;-42
2022/10/02 04:59:02;;;;;;;0.68;0.68;;;;;;;;;;5087086;28;20574;-42
2022/10/02 05:01:39;;;;;;;0.90;0.77;;;;;;;;;;5085107;28;20096;-42
2022/10/02 05:04:17;;;;;;;1.05;0.80;;;;;;;;;;5086257;28;20089;-42
2022/10/02 05:07:08;;;;;;;1.60;0.90;;;;;;;;;;5086676;28;20028;-42
2022/10/02 05:09:55;;;;;;;1.45;0.70;;;;;;;;;;5086230;28;20028;-42
2022/10/02 05:12:21;;;;;;;0.50;0.50;;;;;;;;;;5086399;28;20030;-43
2022/10/02 05:15:06;;;;;;;1.00;0.90;;;;;;;;;;5083109;28;20120;-42
2022/10/02 05:17:37;;;;;;;0.80;0.77;;;;;;;;;;5086356;28;20028;-43
2022/10/02 05:20:19;;;;;;;0.90;0.70;;;;;;;;;;5086625;28;20039;-43
2022/10/02 05:22:57;;;;;;;0.63;0.60;;;;;;;;;;5086266;28;20022;-43
2022/10/02 05:25:36;;;;;;;0.50;0.50;;;;;;;;;;5066491;28;20036;-42
2022/10/02 05:28:21;;;;;;;0.95;0.60;;;;;;;;;;5066305;28;20036;-42
2022/10/02 05:31:16;;;;;;;0.60;0.60;;;;;;;;;;5065964;28;20033;-42
2022/10/02 05:33:56;;;;;;;0.75;0.50;;;;;;;;;;5047244;28;20880;-43
2022/10/02 05:36:27;;;;;;;1.33;0.70;;;;;;;;;;5086336;28;20527;-42
2022/10/02 05:38:53;;;;;;;0.77;0.73;;;;;;;;;;5086337;28;20016;-43
2022/10/02 05:41:28;;;;;;;0.60;0.60;;;;;;;;;;5086415;28;20028;-43
2022/10/02 05:44:04;;;;;;;0.68;0.60;;;;;;;;;;5078720;28;20399;-42
2022/10/02 05:46:36;;;;;;;0.50;0.50;;;;;;;;;;5084751;28;20035;-43
2022/10/02 05:49:07;;;;;;;0.68;0.60;;;;;;;;;;5086555;28;20028;-43
2022/10/02 05:51:35;;;;;;;0.60;0.60;;;;;;;;;;5088540;28;20056;-42
2022/10/02 05:54:24;;;;;;;0.93;0.63;;;;;;;;;;5087959;28;20116;-42
2022/10/02 05:56:55;;;;;;;1.08;0.52;;;;;;;;;;5075335;28;20059;-43
2022/10/02 05:59:33;;;;;;;0.93;0.60;;;;;;;;;;5090938;28;20526;-43
2022/10/02 06:02:03;;;;;;;0.57;0.57;;;;;;;;;;5090640;28;20059;-42
2022/10/02 06:04:38;;;;;;;0.50;0.50;;;;;;;;;;5089550;28;20028;-43
2022/10/02 06:07:12;;;;;;;0.45;0.45;;;;;;;;;;5090433;28;20032;-43
2022/10/02 06:09:50;;;;;;;0.50;0.50;;;;;;;;;;5087542;28;20089;-42
2022/10/02 06:12:19;;;;;;;0.40;0.40;;;;;;;;;;5070075;28;20025;-42
2022/10/02 06:15:15;;;;;;;0.60;0.50;;;;;;;;;;5069765;28;20020;-43
2022/10/02 06:17:46;;;;;;;0.85;0.68;;;;;;;;;;5032958;28;20039;-42
2022/10/02 06:20:12;;;;;;;0.50;0.40;;;;;;;;;;5074668;28;20028;-43
2022/10/02 06:22:43;;;;;;;0.68;0.65;;;;;;;;;;5090579;28;20101;-42
2022/10/02 06:25:27;;;;;;;0.70;0.60;;;;;;;;;;5089365;28;20028;-42
2022/10/02 06:28:00;;;;;;;0.50;0.50;;;;;;;;;;5090016;28;20032;-42
2022/10/02 06:30:27;;;;;;;0.50;0.50;;;;;;;;;;5088214;28;20511;-42
2022/10/02 06:32:54;;;;;;;0.60;0.60;;;;;;;;;;5074795;28;20036;-42
2022/10/02 06:35:38;;;;;;;0.65;0.65;;;;;;;;;;5083133;28;20035;-43
2022/10/02 06:38:04;;;;;;;0.40;0.40;;;;;;;;;;5086219;28;20028;-43
2022/10/02 06:40:41;;;;;;;0.70;0.57;;;;;;;;;;5086185;28;20408;-42
2022/10/02 06:43:19;;;;;;;0.73;0.60;;;;;;;;;;5086377;28;20030;-42
2022/10/02 06:45:52;;;;;;;0.85;0.70;;;;;;;;;;5088629;28;20103;-42
2022/10/02 06:48:37;;;;;;;0.68;0.68;;;;;;;;;;5085193;28;20021;-43
2022/10/02 06:51:09;;;;;;;1.00;0.80;;;;;;;;;;5069166;28;20492;-42
2022/10/02 06:53:41;;;;;;;0.90;0.77;;;;;;;;;;5069091;28;20032;-42
2022/10/02 06:56:21;;;;;;;0.95;0.80;;;;;;;;;;5089744;28;20028;-42
2022/10/02 06:58:47;;;;;;;1.10;0.85;;;;;;;;;;5084437;28;20054;-42
2022/10/02 07:01:34;;;;;;;1.38;0.93;;;;;;;;;;5078443;28;20407;-42
2022/10/02 07:04:00;;;;;;;1.15;1.05;;;;;;;;;;5084894;28;20032;-42
2022/10/02 07:06:35;;;;;;;0.82;0.70;;;;;;;;;;5080398;28;20074;-43
2022/10/02 07:09:20;;;;;;;0.70;0.70;;;;;;;;;;5068155;28;20032;-42
2022/10/02 07:11:49;;;;;;;0.70;0.70;;;;;;;;;;5086728;28;20487;-43
2022/10/02 07:14:30;;;;;;;0.60;0.60;;;;;;;;;;5087112;28;20035;-42
2022/10/02 07:17:03;;;;;;;0.60;0.60;;;;;;;;;;5087607;28;20064;-42
2022/10/02 07:19:29;;;;;;;0.90;0.80;;;;;;;;;;5088834;28;20020;-42
2022/10/02 07:22:16;;;;;;;0.85;0.80;;;;;;;;;;5087349;28;20069;-42
2022/10/02 07:24:58;;;;;;;1.55;1.10;;;;;;;;;;5068335;28;20063;-44
2022/10/02 07:27:28;;;;;;;1.88;1.17;;;;;;;;;;5068531;28;20083;-43
2022/10/02 07:30:02;;;;;;;0.82;0.73;;;;;;;;;;5070376;28;20383;-43
2022/10/02 07:32:34;;;;;;;2.80;0.77;;;;;;;;;;5071602;28;20056;-42
2022/10/02 07:35:20;;;;;;;2.17;0.65;;;;;;;;;;5086574;28;20051;-42
2022/10/02 07:37:53;;;;;;;1.17;0.90;;;;;;;;;;5082962;28;20031;-42
2022/10/02 07:40:28;;;;;;;0.63;0.60;;;;;;;;;;5082537;28;20023;-43
2022/10/02 07:43:04;;;;;;;1.65;0.95;;;;;;;;;;5077819;28;20024;-43
2022/10/02 07:45:37;;;;;;;0.60;0.47;;;;;;;;;;5087023;28;20020;-43
2022/10/02 07:48:15;;;;;;;0.67;0.63;;;;;;;;;;5083114;28;20585;-43
2022/10/02 07:50:52;;;;;;;0.50;0.50;;;;;;;;;;5074429;28;20040;-42
2022/10/02 07:53:18;;;;;;;1.17;0.77;;;;;;;;;;5085189;28;20050;-43
2022/10/02 07:55:48;;;;;;;0.70;0.70;;;;;;;;;;5086829;28;20032;-42
2022/10/02 07:58:16;;;;;;;0.63;0.63;;;;;;;;;;5077418;28;20037;-42
2022/10/02 08:00:44;;;;;;;0.77;0.70;;;;;;;;;;5069634;28;20032;-42
2022/10/02 08:03:19;;;;;;;1.20;0.90;;;;;;;;;;5082574;28;20049;-42
2022/10/02 08:05:47;;;;;;;1.08;0.85;;;;;;;;;;5086405;28;20032;-42
2022/10/02 08:08:30;;;;;;;0.82;0.55;;;;;;;;;;5077890;28;20029;-43
2022/10/02 08:11:02;;;;;;;0.85;0.73;;;;;;;;;;5070664;28;20423;-43
2022/10/02 08:13:34;;;;;;;0.60;0.60;;;;;;;;;;5084773;28;20445;-43
2022/10/02 08:16:03;;;;;;;0.73;0.68;;;;;;;;;;5085600;28;20051;-42
2022/10/02 08:18:37;;;;;;;0.43;0.43;;;;;;;;;;5085609;28;20059;-43
2022/10/02 08:21:08;;;;;;;0.65;0.65;;;;;;;;;;5072618;28;20097;-43
2022/10/02 08:23:37;;;;;;;0.70;0.70;;;;;;;;;;5079377;28;20414;-42
2022/10/02 08:26:11;;;;;;;0.80;0.63;;;;;;;;;;5071066;28;20466;-43
2022/10/02 08:29:04;;;;;;;1.40;0.87;;;;;;;;;;5083599;28;20093;-42
2022/10/02 08:31:32;;;;;;;1.63;0.80;;;;;;;;;;5070840;28;20286;-42
2022/10/02 08:34:00;;;;;;;0.82;0.80;;;;;;;;;;5078051;28;20440;-42
2022/10/02 08:36:43;;;;;;;0.68;0.63;;;;;;;;;;5073614;28;20074;-42
2022/10/02 08:39:09;;;;;;;2.53;0.80;;;;;;;;;;5085465;28;20142;-43
2022/10/02 08:41:54;;;;;;;0.90;0.77;;;;;;;;;;5087017;28;20031;-42
2022/10/02 08:44:20;;;;;;;0.85;0.80;;;;;;;;;;5077415;28;20028;-42
2022/10/02 08:47:07;;;;;;;1.00;0.90;;;;;;;;;;5080068;28;20024;-43
2022/10/02 08:49:42;;;;;;;0.70;0.70;;;;;;;;;;5073901;28;20487;-42
2022/10/02 08:52:17;;;;;;;0.80;0.80;;;;;;;;;;5080003;28;20032;-43
2022/10/02 08:55:08;;;;;;;0.80;0.70;;;;;;;;;;5084454;28;20034;-43
2022/10/02 08:57:46;;;;;;;0.60;0.60;;;;;;;;;;5081546;28;20047;-42
2022/10/02 09:00:19;;;;;;;0.88;0.60;;;;;;;;;;5069783;28;20453;-43
2022/10/02 09:03:01;;;;;;;0.50;0.50;;;;;;;;;;5084284;28;20043;-43
2022/10/02 09:05:27;;;;;;;0.50;0.50;;;;;;;;;;5087821;28;20020;-43
2022/10/02 09:08:02;;;;;;;0.55;0.55;;;;;;;;;;5084493;28;20024;-43
2022/10/02 09:10:31;;;;;;;0.40;0.40;;;;;;;;;;5071784;28;20032;-43
2022/10/02 09:13:15;;;;;;;0.40;0.40;;;;;;;;;;5085827;28;20101;-42
2022/10/02 09:15:41;;;;;;;;;;;;;;;;;;5086638;28;20024;-43
2022/10/02 09:18:26;;;;;;;0.47;0.40;;;;;;;;;;5080804;28;20405;-43
2022/10/02 09:20:52;;;;;;;0.40;0.40;;;;;;;;;;5082032;28;20040;-44
2022/10/02 09:23:36;;;;;;;0.40;0.30;;;;;;;;;;5085073;28;20084;-43
2022/10/02 09:26:02;;;;;;;;;;;;;;;;;;5087585;28;20031;-43
2022/10/02 09:28:31;;;;;;;0.40;0.40;;;;;;;;;;5085512;28;19999;-42
2022/10/02 09:31:02;;;;;;;0.40;0.40;;;;;;;;;;5073944;28;20039;-43
2022/10/02 09:33:38;;;;;;;0.47;0.47;;;;;;;;;;5085499;28;20439;-43
2022/10/02 09:36:24;;;;;;;0.40;0.40;;;;;;;;;;5086925;28;20020;-42
2022/10/02 09:39:08;;;;;;;0.40;0.40;;;;;;;;;;5085879;28;20019;-43
2022/10/02 09:41:42;;;;;;;0.30;0.30;;;;;;;;;;5080748;28;20020;-43
2022/10/02 09:44:08;;;;;;;;;;;;;;;;;;5073582;28;20031;-42
2022/10/02 09:46:34;;;;;;;0.70;0.40;;;;;;;;;;5086229;28;19904;-43
2022/10/02 09:49:07;;;;;;;0.30;0.30;;;;;;;;;;5086061;28;20024;-43
2022/10/02 09:52:01;;;;;;;0.38;0.38;;;;;;;;;;5086412;28;20404;-43
2022/10/02 09:54:30;;;;;;;0.30;0.30;;;;;;;;;;5086334;28;20024;-43
2022/10/02 09:56:59;;;;;;;0.30;0.30;;;;;;;;;;5077485;28;20044;-43
2022/10/02 09:59:44;;;;;;;0.40;0.40;;;;;;;;;;5074022;28;20020;-43
2022/10/02 10:02:28;;;;;;;0.30;0.30;;;;;;;;;;5082919;28;20028;-43
2022/10/02 10:05:02;;;;;;;0.20;0.20;;;;;;;;;;5086359;28;20028;-42
2022/10/02 10:07:28;;;;;;;0.30;0.30;;;;;;;;;;5085449;28;20432;-43
2022/10/02 10:10:19;;;;;;;0.30;0.30;;;;;;;;;;5085275;28;20024;-43
2022/10/02 10:13:21;;;;;;;0.30;0.30;;;;;;;;;;5082109;28;20036;-44
2022/10/02 10:16:06;;;;;;;0.30;0.30;;;;;;;;;;5062870;28;20062;-43
2022/10/02 10:18:42;;;;;;;0.30;0.30;;;;;;;;;;5084865;28;20198;-44
2022/10/02 10:21:26;;;;;;;0.40;0.40;;;;;;;;;;5086647;28;20036;-43
2022/10/02 10:23:56;;;;;;;0.30;0.30;;;;;;;;;;5086200;28;20412;-43
2022/10/02 10:26:34;;;;;;;0.35;0.35;;;;;;;;;;5085855;28;20024;-43
2022/10/02 10:29:10;;;;;;;0.30;0.30;;;;;;;;;;5083524;28;20028;-43
2022/10/02 10:31:44;;;;;;;0.30;0.30;;;;;;;;;;5079996;28;20043;-44
2022/10/02 10:34:29;;;;;;;0.28;0.28;;;;;;;;;;5082992;28;20107;-43
2022/10/02 10:39:58;;;;;;;0.30;0.30;;;;;;;;;;5086127;28;20093;-43
2022/10/02 10:42:34;;;;;;;0.30;0.30;;;;;;;;;;5086721;28;20017;-43
2022/10/02 10:45:21;;;;;;;0.43;0.30;;;;;;;;;;5085141;28;20073;-43
2022/10/02 10:47:47;;;;;;;0.30;0.30;;;;;;;;;;5085653;28;20047;-43
2022/10/02 10:50:26;;;;;;;0.25;0.25;;;;;;;;;;5072070;28;20487;-44
2022/10/02 10:52:52;;;;;;;;;;;;;;;;;;5086995;28;20041;-43
2022/10/02 10:55:18;;;;;;;;;;;;;;;;;;5087951;28;19945;-44
2022/10/02 10:57:44;;;;;;;;;;;;;;;;;;5084836;28;20003;-43
2022/10/02 11:00:10;;;;;;;;;;;;;;;;;;5078912;28;19974;-44
2022/10/02 11:02:36;;;;;;;;;;;;;;;;;;5085727;28;20576;-43
2022/10/02 11:05:02;;;;;;;;;;;;;;;;;;5080338;28;19912;-43
2022/10/02 11:07:33;;;;;;;;;;;;;;;;;;5077083;28;19919;-44
2022/10/02 11:09:59;;;;;;;;;;;;;;;;;;5070032;28;20002;-43
2022/10/02 11:12:27;;;;;;;;;;;;;;;;;;5084254;28;20005;-43
2022/10/02 11:14:53;;;;;;;;;;;;;;;;;;5089384;28;19985;-43
2022/10/02 11:17:18;;;;;;;;;;;;;;;;;;5085631;28;20421;-44
2022/10/02 11:19:46;;;;;;;;;;;;;;;;;;5083947;28;20007;-44
2022/10/02 11:22:12;;;;;;;;;;;;;;;;;;5087285;28;19990;-44
2022/10/02 11:24:38;;;;;;;;;;;;;;;;;;5085142;28;19995;-44
2022/10/02 11:27:04;;;;;;;;;;;;;;;;;;5084988;28;19975;-44
2022/10/02 11:29:33;;;;;;;;;;;;;;;;;;5088708;28;19912;-45
2022/10/02 11:31:58;;;;;;;;;;;;;;;;;;5088335;28;19912;-43
2022/10/02 11:34:24;;;;;;;;;;;;;;;;;;5088884;28;20451;-44
2022/10/02 11:36:51;;;;;;;;;;;;;;;;;;5089054;28;19928;-43
2022/10/02 11:39:18;;;;;;;;;;;;;;;;;;5087066;28;19908;-45
2022/10/02 11:41:44;;;;;;;;;;;;;;;;;;5077844;28;19911;-44
2022/10/02 11:44:10;;;;;;;;;;;;;;;;;;5086466;28;19908;-44
2022/10/02 11:46:36;;;;;;;;;;;;;;;;;;5087890;28;19912;-43
2022/10/02 11:49:01;;;;;;;;;;;;;;;;;;5084921;28;19912;-45
2022/10/02 11:51:27;;;;;;;;;;;;;;;;;;5088273;28;19969;-45
2022/10/02 11:53:53;;;;;;;;;;;;;;;;;;5087248;28;20023;-45
2022/10/02 11:56:21;;;;;;;;;;;;;;;;;;5077430;28;19926;-44
2022/10/02 11:58:47;;;;;;;;;;;;;;;;;;5087733;28;20366;-43
2022/10/02 12:01:13;;;;;;;;;;;;;;;;;;5087415;28;19953;-44
2022/10/02 12:03:39;;;;;;;;;;;;;;;;;;5086457;28;19934;-44
2022/10/02 12:06:05;;;;;;;;;;;;;;;;;;5088242;28;19986;-45
2022/10/02 12:08:33;;;;;;;;;;;;;;;;;;5087598;28;19991;-45
2022/10/02 12:10:59;;;;;;;;;;;;;;;;;;5088516;28;19918;-45
2022/10/02 12:13:25;;;;;;;;;;;;;;;;;;5086819;28;19908;-43
2022/10/02 12:15:51;;;;;;;;;;;;;;;;;;5073725;28;19908;-44
2022/10/02 12:18:17;;;;;;;;;;;;;;;;;;5087595;28;19904;-44
2022/10/02 12:28:57;;;;;;;;;;;;;;;;;;5077251;28;20283;-42
2022/10/02 12:31:23;;;;;;;;;;;;;;;;;;5079929;28;19907;-43
2022/10/02 12:33:49;;;;;;;;;;;;;;;;;;5087140;28;19937;-42
2022/10/02 12:36:15;;;;;;;;;;;;;;;;;;5087313;28;19916;-42
2022/10/02 12:38:43;;;;;;;;;;;;;;;;;;5087523;28;20321;-42
2022/10/02 12:41:09;;;;;;;;;;;;;;;;;;5087609;28;19912;-42
2022/10/02 12:43:35;;;;;;;;;;;;;;;;;;5087123;28;19953;-42
2022/10/02 12:46:01;;;;;;;;;;;;;;;;;;5076828;28;19977;-42
2022/10/02 12:48:26;;;;;;;;;;;;;;;;;;5085817;28;19986;-42
2022/10/02 12:50:52;;;;;;;;;;;;;;;;;;5084372;28;19915;-43
2022/10/02 12:53:18;;;;;;;;;;;;;;;;;;5084631;28;19966;-43
2022/10/02 12:55:44;;;;;;;;;;;;;;;;;;5077683;28;19922;-43
2022/10/02 12:58:10;;;;;;;;;;;;;;;;;;5085617;28;19938;-43
2022/10/02 13:00:36;;;;;;;;;;;;;;;;;;5087079;28;19931;-42
2022/10/02 13:03:04;;;;;;;;;;;;;;;;;;5085504;28;19955;-41
2022/10/02 13:05:30;;;;;;;;;;;;;;;;;;5086677;28;19912;-41
2022/10/02 13:07:56;;;;;;;;;;;;;;;;;;5085950;28;19912;-43
2022/10/02 13:10:22;;;;;;;;;;;;;;;;;;5069396;28;19918;-42
2022/10/02 13:12:50;;;;;;;;;;;;;;;;;;5081042;28;19912;-43
2022/10/02 13:15:16;;;;;;;;;;;;;;;;;;5087719;28;19915;-43
2022/10/02 13:17:45;;;;;;;;;;;;;;;;;;5083436;28;20002;-43
2022/10/02 13:20:11;;;;;;;;;;;;;;;;;;5067747;28;19904;-44
2022/10/02 13:22:37;;;;;;;;;;;;;;;;;;5081604;28;19916;-42
2022/10/02 13:25:03;;;;;;;;;;;;;;;;;;5085689;28;19908;-41
2022/10/02 13:27:29;;;;;;;;;;;;;;;;;;5086005;28;20286;-41
2022/10/02 13:29:55;;;;;;;;;;;;;;;;;;5088385;28;19908;-42
2022/10/02 13:32:21;;;;;;;;;;;;;;;;;;5086041;28;20260;-45
2022/10/02 13:34:47;;;;;;;;;;;;;;;;;;5087249;28;20401;-43
2022/10/02 13:37:14;;;;;;;;;;;;;;;;;;5085285;28;19914;-43
2022/10/02 13:39:40;;;;;;;;;;;;;;;;;;5086586;28;20281;-43
2022/10/02 13:42:06;;;;;;;;;;;;;;;;;;5084893;28;19917;-43
2022/10/02 13:44:32;;;;;;;;;;;;;;;;;;5086437;28;19915;-43
2022/10/02 13:46:58;;;;;;;;;;;;;;;;;;5086548;28;19904;-43
2022/10/02 13:49:24;;;;;;;;;;;;;;;;;;5087459;28;19995;-43
2022/10/02 13:51:51;;;;;;;;;;;;;;;;;;5086198;28;19908;-42
2022/10/02 13:54:17;;;;;;;;;;;;;;;;;;5086467;28;20474;-44
2022/10/02 13:56:43;;;;;;;;;;;;;;;;;;5086407;28;19908;-45
2022/10/02 13:59:09;;;;;;;;;;;;;;;;;;5086329;28;19904;-45
2022/10/02 14:01:35;;;;;;;;;;;;;;;;;;5080433;28;19912;-41
2022/10/02 14:04:01;;;;;;;;;;;;;;;;;;5078369;28;20329;-41
2022/10/02 14:06:27;;;;;;;;;;;;;;;;;;5086804;28;20004;-42
2022/10/02 14:08:53;;;;;;;;;;;;;;;;;;5080273;28;19912;-42
2022/10/02 14:11:19;;;;;;;;;;;;;;;;;;5075369;28;20313;-42
2022/10/02 14:13:45;;;;;;;;;;;;;;;;;;5085330;28;20002;-41
2022/10/02 14:16:11;;;;;;;;;;;;;;;;;;5086891;28;19904;-43
2022/10/02 14:18:37;;;;;;;;;;;;;;;;;;5087335;28;20381;-42
2022/10/02 14:21:03;;;;;;;;;;;;;;;;;;5080182;28;19912;-46
2022/10/02 14:23:29;;;;;;;;;;;;;;;;;;5085056;28;19931;-43
2022/10/02 14:25:55;;;;;;;;;;;;;;;;;;5089129;28;21079;-42
2022/10/02 14:28:21;;;;;;;;;;;;;;;;;;5088980;28;19912;-42
2022/10/02 14:30:47;;;;;;;;;;;;;;;;;;5089877;28;19978;-43
2022/10/02 14:33:15;;;;;;;;;;;;;;;;;;5089320;28;19908;-41
2022/10/02 14:35:41;;;;;;;;;;;;;;;;;;5076348;28;20435;-43
2022/10/02 14:38:07;;;;;;;;;;;;;;;;;;5089334;28;19908;-42
2022/10/02 14:40:33;;;;;;;;;;;;;;;;;;5090279;28;19908;-43
2022/10/02 14:42:59;;;;;;;;;;;;;;;;;;5089556;28;20275;-43
2022/10/02 14:45:25;;;;;;;;;;;;;;;;;;5090220;28;19912;-42
2022/10/02 14:47:51;;;;;;;;;;;;;;;;;;5089036;28;19919;-42
2022/10/02 14:50:17;;;;;;;;;;;;;;;;;;5090373;28;20002;-42
2022/10/02 14:52:43;;;;;;;;;;;;;;;;;;5087209;28;19954;-43
2022/10/02 14:55:09;;;;;;;;;;;;;;;;;;5089678;28;19970;-42
2022/10/02 14:57:35;;;;;;;;;;;;;;;;;;5086894;28;19908;-43
2022/10/02 15:00:02;;;;;;;;;;;;;;;;;;5089142;28;19908;-44
2022/10/02 15:02:28;;;;;;;;;;;;;;;;;;5086602;28;19908;-42
2022/10/02 15:04:54;;;;;;;;;;;;;;;;;;5084130;28;19991;-43
2022/10/02 15:07:20;;;;;;;;;;;;;;;;;;5089156;28;20045;-43
2022/10/02 15:09:47;;;;;;;;;;;;;;;;;;5089124;28;19980;-42
2022/10/02 15:12:13;;;;;;;;;;;;;;;;;;5088364;28;19908;-43
2022/10/02 15:14:39;;;;;;;;;;;;;;;;;;5086972;28;19908;-43
2022/10/02 15:19:50;;;;;;;;;;;;;;;;;;5078990;28;19967;-43
2022/10/02 15:22:19;;;;;;;;;;;;;;;;;;5081325;28;19958;-44
2022/10/02 15:24:44;;;;;;;;;;;;;;;;;;5072367;28;20376;-44
2022/10/02 15:27:10;;;;;;;;;;;;;;;;;;5084058;28;19998;-43
2022/10/02 15:29:37;;;;;;;;;;;;;;;;;;5085137;28;20375;-42
2022/10/02 15:32:04;;;;;;;;;;;;;;;;;;5085182;28;19968;-43
2022/10/02 15:34:30;;;;;;;;;;;;;;;;;;5085810;28;19911;-43
2022/10/02 15:36:56;;;;;;;;;;;;;;;;;;5083697;28;19911;-42
2022/10/02 15:39:22;;;;;;;;;;;;;;;;;;5079122;28;20402;-46
2022/10/02 15:41:48;;;;;;;;;;;;;;;;;;5078891;28;19916;-44
2022/10/02 15:44:15;;;;;;;;;;;;;;;;;;5087940;28;19911;-44
2022/10/02 15:46:40;;;;;;;;;;;;;;;;;;5086882;28;19961;-43
2022/10/02 15:49:06;;;;;;;;;;;;;;;;;;5074411;28;20009;-44
2022/10/02 15:51:32;;;;;;;;;;;;;;;;;;5087218;28;19965;-42
2022/10/02 15:53:59;;;;;;;;;;;;;;;;;;5077472;28;19959;-45
2022/10/02 15:56:25;;;;;;;;;;;;;;;;;;5085272;28;19904;-42
2022/10/02 15:58:51;;;;;;;;;;;;;;;;;;5086920;28;20318;-45